Time;durP1;ratioP1;P1;durP2;ratioP2;P2;SDS_P1;SDS_P2;PMS_P1;PMS_P2;Temp;Humidity;BMP_temperature;BMP_pressure;BME280_temperature;BME280_humidity;BME280_pressure;Samples;Min_cycle;Max_cycle;Signal;HPM_P1;HPM_P2
2021/08/06 00:01:04;;;;;;;1.90;0.45;;;26.30;55.20;;;;;;5034138;28;20618;-61
2021/08/06 00:03:34;;;;;;;1.08;0.47;;;26.30;55.20;;;;;;5048788;28;20119;-59
2021/08/06 00:06:01;;;;;;;1.10;0.20;;;26.30;55.20;;;;;;5040719;28;20466;-59
2021/08/06 00:08:28;;;;;;;1.08;0.35;;;26.30;55.20;;;;;;5038197;28;20049;-56
2021/08/06 00:10:55;;;;;;;1.65;0.50;;;26.30;55.20;;;;;;5035642;28;20053;-58
2021/08/06 00:13:22;;;;;;;2.67;0.70;;;26.30;55.20;;;;;;5032390;28;20045;-58
2021/08/06 00:15:49;;;;;;;2.47;0.40;;;26.30;55.20;;;;;;5037473;28;20041;-61
2021/08/06 00:18:16;;;;;;;1.45;0.73;;;26.30;55.20;;;;;;5042934;28;20719;-61
2021/08/06 00:20:45;;;;;;;2.95;0.50;;;26.20;55.20;;;;;;5041513;28;20095;-61
2021/08/06 00:23:12;;;;;;;2.28;0.20;;;26.30;55.30;;;;;;5031817;28;20576;-61
2021/08/06 00:25:39;;;;;;;1.75;0.52;;;26.20;55.20;;;;;;5033019;28;20040;-61
2021/08/06 00:28:15;;;;;;;2.22;0.30;;;26.20;55.20;;;;;;5047906;28;20067;-62
2021/08/06 00:30:42;;;;;;;3.30;0.77;;;26.20;55.20;;;;;;5048629;28;20052;-57
2021/08/06 00:33:10;;;;;;;0.57;0.57;;;26.20;55.20;;;;;;5046004;28;20647;-55
2021/08/06 00:35:40;;;;;;;0.68;0.20;;;26.20;55.10;;;;;;5037428;28;20045;-55
2021/08/06 00:38:09;;;;;;;0.43;0.25;;;26.30;55.30;;;;;;5032186;28;20785;-54
2021/08/06 00:40:39;;;;;;;1.67;0.20;;;26.20;55.10;;;;;;5013959;28;20057;-56
2021/08/06 00:43:08;;;;;;;1.40;0.20;;;26.20;55.20;;;;;;5044927;28;20041;-55
2021/08/06 00:45:35;;;;;;;1.88;0.20;;;26.20;55.20;;;;;;5046808;28;20041;-56
2021/08/06 00:48:05;;;;;;;3.15;0.50;;;26.20;55.20;;;;;;5045715;28;20084;-60
2021/08/06 00:50:34;;;;;;;0.82;0.10;;;26.20;55.20;;;;;;5054254;28;20075;-60
2021/08/06 00:53:05;;;;;;;1.92;0.20;;;26.20;55.20;;;;;;5046464;28;20041;-60
2021/08/06 00:55:35;;;;;;;2.30;0.20;;;26.20;55.10;;;;;;5030318;28;20116;-60
2021/08/06 00:58:15;;;;;;;1.90;0.20;;;26.20;55.10;;;;;;5030983;28;20091;-60
2021/08/06 01:00:47;;;;;;;1.15;0.15;;;26.20;55.10;;;;;;5046563;28;20044;-59
2021/08/06 01:03:22;;;;;;;0.60;0.35;;;26.20;55.10;;;;;;5038290;28;20095;-59
2021/08/06 01:05:59;;;;;;;0.40;0.10;;;26.20;55.10;;;;;;5040451;28;20478;-59
2021/08/06 01:08:31;;;;;;;0.82;0.15;;;26.20;55.00;;;;;;5045041;28;20717;-61
2021/08/06 01:11:03;;;;;;;3.58;0.68;;;26.20;55.00;;;;;;5045883;28;20040;-61
2021/08/06 01:13:42;;;;;;;1.27;0.65;;;26.20;55.00;;;;;;5044113;28;20100;-61
2021/08/06 01:16:11;;;;;;;0.85;0.20;;;26.20;55.00;;;;;;5048955;28;20045;-59
2021/08/06 01:18:50;;;;;;;0.20;0.10;;;26.20;55.00;;;;;;5041006;28;20059;-60
2021/08/06 01:21:19;;;;;;;0.32;0.22;;;26.20;54.90;;;;;;5045255;28;20040;-59
2021/08/06 01:23:48;;;;;;;0.65;0.10;;;26.20;54.90;;;;;;5045375;28;20057;-59
2021/08/06 01:26:20;;;;;;;1.60;0.20;;;26.20;54.90;;;;;;5043637;28;20099;-58
2021/08/06 01:29:00;;;;;;;0.70;0.15;;;26.20;54.90;;;;;;5045113;28;20033;-59
2021/08/06 01:31:30;;;;;;;0.20;0.10;;;26.20;54.90;;;;;;5029532;28;20041;-58
2021/08/06 01:34:13;;;;;;;0.65;0.10;;;26.10;54.80;;;;;;5043037;28;20144;-58
2021/08/06 01:36:41;;;;;;;0.43;0.10;;;26.20;54.90;;;;;;5048051;28;20052;-59
2021/08/06 01:39:09;;;;;;;0.17;0.10;;;26.10;54.70;;;;;;5036928;28;20051;-58
2021/08/06 01:41:50;;;;;;;2.60;0.20;;;26.10;54.70;;;;;;5039080;28;20522;-61
2021/08/06 01:44:24;;;;;;;0.50;0.10;;;26.20;54.80;;;;;;5043571;28;20391;-61
2021/08/06 01:46:58;;;;;;;0.80;0.15;;;26.10;54.70;;;;;;5045731;28;20072;-61
2021/08/06 01:49:30;;;;;;;0.47;0.10;;;26.10;54.70;;;;;;5034931;28;20037;-61
2021/08/06 01:52:02;;;;;;;0.10;0.10;;;26.20;54.80;;;;;;5047079;28;20045;-61
2021/08/06 01:54:32;;;;;;;0.93;0.10;;;26.20;54.80;;;;;;5043485;28;20525;-61
2021/08/06 01:57:02;;;;;;;0.75;0.20;;;26.10;54.70;;;;;;5036696;28;20069;-61
2021/08/06 01:59:32;;;;;;;1.25;0.30;;;26.10;54.70;;;;;;5033579;28;20050;-61
2021/08/06 02:02:02;;;;;;;1.58;0.10;;;26.10;54.70;;;;;;5042189;28;20124;-61
2021/08/06 02:04:31;;;;;;;0.70;0.10;;;26.10;55.30;;;;;;5044264;28;20044;-61
2021/08/06 02:07:17;;;;;;;0.90;0.20;;;26.10;54.70;;;;;;5044528;28;20053;-61
2021/08/06 02:09:47;;;;;;;0.70;0.10;;;26.10;54.70;;;;;;5031069;28;20041;-61
2021/08/06 02:12:19;;;;;;;0.30;0.28;;;26.10;54.80;;;;;;5059405;28;20039;-61
2021/08/06 02:14:57;;;;;;;0.90;0.10;;;26.10;54.80;;;;;;5041692;28;20063;-61
2021/08/06 02:17:27;;;;;;;0.20;0.10;;;26.10;54.80;;;;;;5032614;28;20103;-61
2021/08/06 02:20:03;;;;;;;0.75;0.10;;;26.10;54.80;;;;;;5041764;28;20120;-61
2021/08/06 02:22:35;;;;;;;2.63;0.30;;;26.10;54.90;;;;;;5028163;28;20041;-61
2021/08/06 02:25:04;;;;;;;1.13;0.10;;;26.10;54.80;;;;;;5041878;28;20053;-59
2021/08/06 02:27:35;;;;;;;0.57;0.10;;;26.10;54.80;;;;;;5050470;28;20053;-59
2021/08/06 02:30:04;;;;;;;0.90;0.90;;;26.10;54.90;;;;;;5044916;28;20041;-59
2021/08/06 02:32:37;;;;;;;0.45;0.30;;;26.10;55.40;;;;;;5040219;28;20037;-60
2021/08/06 02:35:06;;;;;;;0.80;0.10;;;26.10;54.90;;;;;;5029702;28;20069;-60
2021/08/06 02:37:37;;;;;;;0.52;0.25;;;26.10;54.90;;;;;;5027834;28;20143;-59
2021/08/06 02:40:06;;;;;;;0.90;0.10;;;26.10;54.80;;;;;;5045416;28;20050;-61
2021/08/06 02:42:35;;;;;;;1.65;0.40;;;26.10;54.90;;;;;;5049739;28;20045;-60
2021/08/06 02:45:04;;;;;;;2.10;0.10;;;26.10;54.80;;;;;;5039571;28;20102;-60
2021/08/06 02:47:31;;;;;;;2.03;1.00;;;26.10;54.70;;;;;;5042724;28;20052;-59
2021/08/06 02:49:58;;;;;;;2.70;0.13;;;26.10;54.70;;;;;;5033806;28;20144;-60
2021/08/06 02:52:25;;;;;;;1.60;0.10;;;26.10;54.80;;;;;;5028608;28;20045;-61
2021/08/06 02:54:52;;;;;;;5.97;0.10;;;26.10;54.80;;;;;;5037586;28;20037;-60
2021/08/06 02:57:20;;;;;;;0.68;0.00;;;26.10;54.80;;;;;;5045925;28;20103;-60
2021/08/06 02:59:51;;;;;;;2.80;0.30;;;26.10;54.80;;;;;;5034506;28;20403;-61
2021/08/06 03:02:18;;;;;;;0.25;0.10;;;26.10;54.70;;;;;;5039296;28;20037;-58
2021/08/06 03:04:45;;;;;;;0.68;0.10;;;26.10;54.70;;;;;;5030424;28;20388;-59
2021/08/06 03:07:18;;;;;;;0.20;0.00;;;26.10;54.70;;;;;;5046700;28;20048;-59
2021/08/06 03:09:46;;;;;;;1.25;0.10;;;26.00;54.60;;;;;;5030833;28;20588;-59
2021/08/06 03:12:14;;;;;;;0.80;0.10;;;26.10;54.70;;;;;;5032713;28;20515;-59
2021/08/06 03:14:41;;;;;;;0.30;0.00;;;26.10;54.60;;;;;;5038416;28;20037;-60
2021/08/06 03:17:09;;;;;;;0.13;0.10;;;26.10;54.60;;;;;;5049151;28;20048;-59
2021/08/06 03:19:39;;;;;;;0.68;0.10;;;26.10;54.60;;;;;;5046864;28;20056;-58
2021/08/06 03:22:06;;;;;;;0.30;0.10;;;26.10;54.50;;;;;;5030980;28;20754;-60
2021/08/06 03:24:34;;;;;;;0.25;0.10;;;26.10;54.60;;;;;;5036653;28;20053;-59
2021/08/06 03:27:01;;;;;;;0.70;0.10;;;26.10;54.50;;;;;;5040288;28;20466;-59
2021/08/06 03:29:29;;;;;;;0.15;0.10;;;26.10;54.50;;;;;;5044037;28;20045;-60
2021/08/06 03:31:56;;;;;;;0.43;0.10;;;26.10;54.50;;;;;;5049235;28;20488;-59
2021/08/06 03:34:24;;;;;;;0.57;0.17;;;26.10;54.40;;;;;;5049192;28;20457;-60
2021/08/06 03:36:51;;;;;;;0.57;0.10;;;26.10;54.40;;;;;;5034117;28;20049;-59
2021/08/06 03:39:19;;;;;;;0.30;0.10;;;26.10;54.40;;;;;;5047075;28;20199;-59
2021/08/06 03:41:48;;;;;;;1.65;0.10;;;26.00;54.30;;;;;;5047487;28;20124;-59
2021/08/06 03:44:15;;;;;;;0.10;0.10;;;26.00;54.20;;;;;;5045040;28;20036;-58
2021/08/06 03:46:43;;;;;;;1.92;0.15;;;26.00;54.20;;;;;;5047504;28;20573;-59
2021/08/06 03:49:10;;;;;;;0.08;0.00;;;26.00;54.20;;;;;;5040742;28;20418;-59
2021/08/06 03:51:38;;;;;;;0.75;0.10;;;26.00;54.20;;;;;;5064117;28;20076;-60
2021/08/06 03:54:05;;;;;;;0.52;0.03;;;26.00;54.10;;;;;;5045573;28;20121;-60
2021/08/06 03:56:35;;;;;;;0.20;0.08;;;26.00;54.10;;;;;;5051235;28;20458;-59
2021/08/06 03:59:03;;;;;;;0.40;0.10;;;26.00;54.20;;;;;;5035647;28;20071;-59
2021/08/06 04:01:30;;;;;;;0.85;0.20;;;26.00;54.20;;;;;;5047522;28;20116;-59
2021/08/06 04:03:58;;;;;;;1.27;0.10;;;26.00;54.20;;;;;;5045875;28;20056;-58
2021/08/06 04:06:25;;;;;;;1.13;0.10;;;26.00;54.30;;;;;;5052808;28;20048;-56
2021/08/06 04:08:54;;;;;;;0.77;0.10;;;26.00;54.40;;;;;;5041878;28;20053;-57
2021/08/06 04:11:22;;;;;;;1.05;0.10;;;26.00;54.40;;;;;;5045456;28;20043;-56
2021/08/06 04:13:49;;;;;;;0.82;0.10;;;25.90;54.80;;;;;;5046927;28;20044;-57
2021/08/06 04:16:16;;;;;;;0.10;0.10;;;26.00;54.30;;;;;;5036703;28;20045;-56
2021/08/06 04:18:44;;;;;;;1.00;0.10;;;26.00;54.30;;;;;;5036308;28;20045;-57
2021/08/06 04:21:11;;;;;;;0.73;0.05;;;26.00;54.30;;;;;;5046340;28;20041;-57
2021/08/06 04:23:38;;;;;;;0.50;0.08;;;25.90;54.20;;;;;;5048025;28;20314;-55
2021/08/06 04:26:06;;;;;;;0.00;0.00;;;26.00;54.30;;;;;;5037450;28;20052;-58
2021/08/06 04:28:34;;;;;;;0.25;0.10;;;26.00;54.80;;;;;;5052841;28;20045;-54
2021/08/06 04:31:04;;;;;;;0.10;0.10;;;26.00;54.20;;;;;;5051826;28;20045;-54
2021/08/06 04:33:31;;;;;;;0.10;0.00;;;25.90;54.10;;;;;;5059727;28;20423;-57
2021/08/06 04:35:59;;;;;;;0.10;0.10;;;26.00;54.10;;;;;;5051850;28;20037;-56
2021/08/06 04:38:27;;;;;;;0.45;0.15;;;26.00;54.10;;;;;;5039291;28;20053;-58
2021/08/06 04:40:54;;;;;;;3.67;0.80;;;26.00;54.10;;;;;;5046505;28;20679;-60
2021/08/06 04:43:23;;;;;;;0.75;0.10;;;25.90;54.00;;;;;;5047631;28;20045;-60
2021/08/06 04:45:51;;;;;;;0.68;0.03;;;26.00;54.00;;;;;;5034918;28;20506;-60
2021/08/06 04:48:19;;;;;;;2.40;0.10;;;26.00;54.00;;;;;;5044440;28;20518;-60
2021/08/06 04:50:46;;;;;;;0.80;0.70;;;25.90;54.00;;;;;;5043081;28;20044;-61
2021/08/06 04:53:14;;;;;;;0.63;0.52;;;25.90;53.90;;;;;;5051161;28;20042;-61
2021/08/06 04:55:41;;;;;;;0.10;0.00;;;25.90;53.90;;;;;;5043823;28;20128;-60
2021/08/06 04:58:09;;;;;;;0.40;0.10;;;25.90;53.80;;;;;;5044948;28;20051;-59
2021/08/06 05:00:37;;;;;;;2.28;0.10;;;25.90;53.80;;;;;;5035273;28;20046;-59
2021/08/06 05:03:08;;;;;;;0.35;0.10;;;25.90;53.80;;;;;;5037505;28;20122;-59
2021/08/06 05:05:41;;;;;;;0.40;0.10;;;25.90;53.80;;;;;;5058976;28;20045;-60
2021/08/06 05:08:09;;;;;;;0.15;0.10;;;25.90;53.80;;;;;;5051056;28;20163;-58
2021/08/06 05:10:37;;;;;;;0.73;0.17;;;25.90;53.80;;;;;;5034256;28;20044;-59
2021/08/06 05:13:04;;;;;;;1.77;0.30;;;25.90;54.40;;;;;;5043972;28;20087;-57
2021/08/06 05:15:32;;;;;;;0.70;0.57;;;25.90;53.90;;;;;;5041102;28;20475;-57
2021/08/06 05:18:03;;;;;;;0.17;0.00;;;25.90;53.80;;;;;;5055721;28;20045;-57
2021/08/06 05:20:32;;;;;;;1.05;0.15;;;25.90;53.80;;;;;;5034348;28;20048;-58
2021/08/06 05:22:59;;;;;;;0.57;0.40;;;25.90;53.80;;;;;;5060643;28;20047;-60
2021/08/06 05:25:27;;;;;;;2.90;0.10;;;25.90;53.70;;;;;;5046276;28;20045;-52
2021/08/06 05:27:54;;;;;;;1.75;0.10;;;25.90;53.30;;;;;;5048590;28;20041;-54
2021/08/06 05:30:22;;;;;;;3.58;0.13;;;25.80;52.70;;;;;;5042299;28;20048;-53
2021/08/06 05:32:51;;;;;;;1.65;0.10;;;25.80;52.30;;;;;;5039916;28;20087;-53
2021/08/06 05:35:21;;;;;;;5.32;0.10;;;25.80;52.00;;;;;;5059781;28;20681;-51
2021/08/06 05:37:49;;;;;;;1.45;0.25;;;25.80;52.50;;;;;;5027430;28;20076;-49
2021/08/06 05:40:16;;;;;;;1.77;0.20;;;25.70;51.90;;;;;;5047076;28;20064;-48
2021/08/06 05:42:43;;;;;;;3.90;0.00;;;25.70;51.90;;;;;;5047196;28;20041;-50
2021/08/06 05:45:12;;;;;;;4.30;0.10;;;25.70;51.90;;;;;;5036381;28;20511;-46
2021/08/06 05:47:45;;;;;;;1.45;0.20;;;25.70;51.90;;;;;;5038149;28;20115;-49
2021/08/06 05:50:13;;;;;;;2.47;0.10;;;25.70;51.90;;;;;;5041957;28;20100;-50
2021/08/06 05:52:45;;;;;;;3.42;0.85;;;25.70;51.90;;;;;;5044796;28;20037;-51
2021/08/06 05:55:13;;;;;;;1.95;0.10;;;25.70;51.90;;;;;;5048123;28;20040;-53
2021/08/06 05:57:42;;;;;;;7.63;0.10;;;25.60;51.90;;;;;;5030760;28;20487;-47
2021/08/06 06:00:11;;;;;;;1.02;0.10;;;25.70;52.00;;;;;;5043158;28;20462;-48
2021/08/06 06:02:52;;;;;;;2.03;0.10;;;25.70;51.90;;;;;;5057180;28;20534;-46
2021/08/06 06:05:39;;;;;;;0.50;0.15;;;25.60;51.90;;;;;;5046650;28;20408;-47
2021/08/06 06:08:07;;;;;;;1.23;0.50;;;25.60;51.90;;;;;;5045972;28;20572;-50
2021/08/06 06:10:36;;;;;;;0.10;0.10;;;25.60;51.90;;;;;;5028507;28;20045;-47
2021/08/06 06:13:04;;;;;;;2.67;0.17;;;25.60;51.90;;;;;;5026341;28;20049;-48
2021/08/06 06:15:32;;;;;;;3.08;0.10;;;25.60;51.90;;;;;;5032527;28;20049;-45
2021/08/06 06:17:59;;;;;;;0.60;0.10;;;25.60;51.90;;;;;;5040296;28;20699;-48
2021/08/06 06:20:28;;;;;;;0.68;0.10;;;25.60;51.90;;;;;;5041755;28;20055;-46
2021/08/06 06:22:57;;;;;;;0.55;0.00;;;25.60;51.80;;;;;;5030895;28;20045;-48
2021/08/06 06:25:25;;;;;;;2.55;0.20;;;25.60;51.80;;;;;;5045386;28;20045;-47
2021/08/06 06:27:56;;;;;;;0.10;0.00;;;25.60;51.80;;;;;;5045604;28;20076;-46
2021/08/06 06:30:27;;;;;;;1.50;0.10;;;25.70;51.90;;;;;;5043871;28;20574;-48
2021/08/06 06:32:56;;;;;;;0.47;0.10;;;25.70;51.90;;;;;;5060404;28;20037;-45
2021/08/06 06:35:24;;;;;;;2.05;0.10;;;25.60;51.80;;;;;;5042312;28;20041;-48
2021/08/06 06:37:52;;;;;;;0.20;0.10;;;25.70;51.90;;;;;;5044510;28;20120;-51
2021/08/06 06:40:21;;;;;;;1.63;0.00;;;25.70;51.90;;;;;;5046026;28;20045;-50
2021/08/06 06:42:50;;;;;;;1.15;0.10;;;25.70;51.80;;;;;;5046625;28;20054;-49
2021/08/06 06:45:18;;;;;;;0.98;0.00;;;25.70;51.80;;;;;;5043721;28;20044;-47
2021/08/06 06:47:47;;;;;;;1.10;0.10;;;25.70;51.80;;;;;;5043957;28;20037;-48
2021/08/06 06:50:18;;;;;;;0.13;0.03;;;25.70;51.80;;;;;;5045881;28;20063;-47
2021/08/06 06:52:47;;;;;;;3.03;0.10;;;25.70;51.80;;;;;;5046154;28;20042;-51
2021/08/06 06:55:15;;;;;;;0.10;0.00;;;25.70;51.80;;;;;;5033822;28;20041;-48
2021/08/06 06:57:43;;;;;;;0.15;0.10;;;25.70;51.70;;;;;;5049520;28;20045;-49
2021/08/06 07:00:14;;;;;;;1.75;0.30;;;25.70;51.70;;;;;;5039086;28;20042;-46
2021/08/06 07:02:41;;;;;;;0.60;0.60;;;25.70;51.70;;;;;;5037955;28;20069;-49
2021/08/06 07:05:10;;;;;;;2.67;0.30;;;25.70;51.70;;;;;;5033502;28;20145;-49
2021/08/06 07:07:37;;;;;;;0.20;0.03;;;25.70;51.70;;;;;;5030756;28;20050;-47
2021/08/06 07:10:07;;;;;;;2.80;0.10;;;25.60;51.60;;;;;;5052487;28;20057;-48
2021/08/06 07:12:35;;;;;;;0.70;0.10;;;25.70;51.60;;;;;;5045141;28;20155;-48
2021/08/06 07:15:04;;;;;;;2.25;0.00;;;25.70;51.70;;;;;;5056045;28;20110;-49
2021/08/06 07:17:33;;;;;;;0.85;0.10;;;25.70;51.60;;;;;;5049051;28;20131;-52
2021/08/06 07:20:01;;;;;;;1.45;0.28;;;25.70;51.60;;;;;;5047881;28;20423;-51
2021/08/06 07:22:28;;;;;;;0.17;0.03;;;25.70;51.60;;;;;;5033130;28;20051;-48
2021/08/06 07:24:56;;;;;;;4.13;0.32;;;25.70;51.50;;;;;;5048119;28;20041;-46
2021/08/06 07:27:23;;;;;;;2.03;0.45;;;25.70;51.50;;;;;;5047778;28;20047;-48
2021/08/06 07:29:51;;;;;;;2.85;0.10;;;25.70;51.50;;;;;;5038552;28;20049;-48
2021/08/06 07:32:18;;;;;;;0.17;0.05;;;25.70;51.50;;;;;;5035333;28;20037;-47
2021/08/06 07:34:46;;;;;;;0.68;0.20;;;25.70;51.50;;;;;;5045173;28;20060;-51
2021/08/06 07:37:13;;;;;;;0.73;0.08;;;25.70;51.50;;;;;;5031313;28;20041;-50
2021/08/06 07:39:42;;;;;;;0.13;0.10;;;25.70;51.40;;;;;;5031716;28;20045;-50
2021/08/06 07:42:10;;;;;;;0.32;0.10;;;25.70;51.40;;;;;;5054708;28;20678;-49
2021/08/06 07:44:37;;;;;;;0.10;0.10;;;25.70;51.40;;;;;;5043996;28;20041;-47
2021/08/06 07:47:05;;;;;;;0.80;0.30;;;25.70;51.40;;;;;;5032600;28;20047;-51
2021/08/06 07:49:42;;;;;;;1.30;0.00;;;25.70;51.40;;;;;;5033410;28;20086;-49
2021/08/06 07:52:12;;;;;;;0.30;0.10;;;25.80;51.40;;;;;;5031481;28;20119;-47
2021/08/06 07:54:42;;;;;;;1.08;0.10;;;25.80;51.40;;;;;;5034647;28;20064;-49
2021/08/06 07:57:10;;;;;;;0.20;0.10;;;25.80;51.40;;;;;;5044620;28;20505;-53
2021/08/06 07:59:38;;;;;;;0.63;0.10;;;25.80;51.40;;;;;;5055080;28;20132;-51
2021/08/06 08:02:06;;;;;;;1.25;0.10;;;25.70;51.30;;;;;;5058142;28;20072;-49
2021/08/06 08:04:34;;;;;;;1.40;0.10;;;25.70;51.30;;;;;;5031103;28;20041;-48
2021/08/06 08:07:02;;;;;;;0.30;0.10;;;25.70;51.20;;;;;;5040429;28;20069;-50
2021/08/06 08:09:31;;;;;;;0.10;0.03;;;25.80;51.30;;;;;;5059635;28;20682;-48
2021/08/06 08:11:58;;;;;;;0.10;0.00;;;25.80;51.30;;;;;;5042277;28;20072;-50
2021/08/06 08:14:25;;;;;;;1.67;0.00;;;25.70;51.20;;;;;;5045452;28;20045;-48
2021/08/06 08:16:53;;;;;;;0.43;0.10;;;25.80;51.30;;;;;;5045251;28;20511;-47
2021/08/06 08:19:21;;;;;;;0.93;0.00;;;25.80;51.20;;;;;;5031773;28;20403;-52
2021/08/06 08:21:49;;;;;;;0.50;0.08;;;25.80;51.20;;;;;;5047710;28;20511;-47
2021/08/06 08:24:17;;;;;;;0.80;0.10;;;25.80;51.20;;;;;;5046172;28;20045;-49
2021/08/06 08:26:47;;;;;;;1.02;0.00;;;25.80;51.20;;;;;;5046361;28;20060;-47
2021/08/06 08:29:14;;;;;;;0.45;0.10;;;25.80;51.20;;;;;;5043450;28;20499;-47
2021/08/06 08:31:42;;;;;;;0.10;0.00;;;25.80;51.20;;;;;;5045856;28;20041;-48
2021/08/06 08:34:10;;;;;;;0.80;0.10;;;25.80;51.20;;;;;;5050085;28;20053;-49
2021/08/06 08:36:38;;;;;;;0.75;0.10;;;25.80;51.80;;;;;;5035577;28;20039;-49
2021/08/06 08:39:05;;;;;;;1.58;0.10;;;25.80;51.10;;;;;;5026065;28;20049;-51
2021/08/06 08:41:37;;;;;;;1.20;0.10;;;25.80;51.10;;;;;;5058277;28;20048;-50
2021/08/06 08:44:06;;;;;;;0.93;0.00;;;25.80;51.10;;;;;;5046373;28;20044;-46
2021/08/06 08:46:36;;;;;;;0.28;0.00;;;25.90;51.20;;;;;;5047712;28;20045;-49
2021/08/06 08:49:04;;;;;;;0.50;0.10;;;25.80;51.20;;;;;;5027617;28;20052;-52
2021/08/06 08:51:35;;;;;;;0.30;0.10;;;25.90;51.20;;;;;;5045447;28;20075;-50
2021/08/06 08:54:05;;;;;;;1.85;0.28;;;25.90;51.10;;;;;;5046193;28;20093;-52
2021/08/06 08:56:33;;;;;;;1.30;0.10;;;25.90;51.10;;;;;;5041374;28;20156;-53
2021/08/06 08:59:01;;;;;;;0.10;0.10;;;25.90;51.10;;;;;;5037420;28;20586;-53
2021/08/06 09:01:32;;;;;;;0.75;0.15;;;25.80;51.00;;;;;;5037493;28;20037;-49
2021/08/06 09:04:00;;;;;;;1.33;0.05;;;25.90;51.00;;;;;;5047421;28;20072;-49
2021/08/06 09:06:41;;;;;;;0.25;0.20;;;25.90;51.00;;;;;;5034719;28;20041;-51
2021/08/06 09:09:14;;;;;;;0.22;0.00;;;25.90;51.00;;;;;;5017960;28;20071;-49
2021/08/06 09:12:07;;;;;;;0.80;0.32;;;25.90;51.00;;;;;;5042935;28;20048;-48
2021/08/06 09:14:53;;;;;;;0.10;0.08;;;25.90;50.90;;;;;;5046328;28;20122;-50
2021/08/06 09:17:21;;;;;;;1.13;0.10;;;25.90;50.90;;;;;;5047521;28;20094;-51
2021/08/06 09:19:57;;;;;;;0.90;0.00;;;26.00;51.00;;;;;;5043443;28;20077;-50
2021/08/06 09:22:28;;;;;;;1.65;0.10;;;26.00;50.90;;;;;;5045974;28;20124;-52
2021/08/06 09:25:12;;;;;;;0.85;0.10;;;26.00;51.00;;;;;;5048542;28;20118;-48
2021/08/06 09:27:43;;;;;;;0.75;0.45;;;26.00;50.90;;;;;;5063147;28;20051;-49
2021/08/06 09:30:14;;;;;;;0.10;0.03;;;26.00;50.90;;;;;;5039315;28;20041;-48
2021/08/06 09:32:54;;;;;;;0.45;0.08;;;26.00;50.80;;;;;;5047483;28;20044;-51
2021/08/06 09:35:23;;;;;;;0.88;0.30;;;26.00;50.70;;;;;;5044769;28;20053;-50
2021/08/06 09:37:52;;;;;;;1.08;0.10;;;26.00;50.70;;;;;;5033508;28;20040;-48
2021/08/06 09:40:21;;;;;;;1.08;0.10;;;26.00;50.60;;;;;;5046523;28;20041;-49
2021/08/06 09:42:54;;;;;;;0.90;0.10;;;26.00;50.60;;;;;;5032307;28;20061;-48
2021/08/06 09:45:24;;;;;;;0.40;0.10;;;26.00;50.60;;;;;;5045341;28;20446;-47
2021/08/06 09:47:56;;;;;;;1.23;0.10;;;26.10;50.60;;;;;;5047330;28;20620;-46
2021/08/06 09:50:27;;;;;;;2.08;0.00;;;26.10;50.70;;;;;;5044535;28;20053;-48
2021/08/06 09:52:54;;;;;;;0.55;0.10;;;26.10;50.70;;;;;;5033312;28;20064;-51
2021/08/06 09:55:28;;;;;;;2.70;0.00;;;26.10;50.70;;;;;;5046173;28;20148;-51
2021/08/06 09:57:55;;;;;;;2.17;0.00;;;26.10;50.60;;;;;;5045837;28;20045;-45
2021/08/06 10:00:25;;;;;;;0.10;0.00;;;26.10;50.70;;;;;;5033884;28;20388;-47
2021/08/06 10:02:55;;;;;;;0.32;0.05;;;26.10;50.60;;;;;;5040472;28;20121;-47
2021/08/06 10:05:24;;;;;;;0.68;0.17;;;26.10;50.60;;;;;;5037088;28;20036;-46
2021/08/06 10:07:53;;;;;;;0.17;0.00;;;26.10;50.60;;;;;;5041043;28;20082;-49
2021/08/06 10:10:23;;;;;;;2.60;0.10;;;26.10;50.60;;;;;;5046101;28;20076;-52
2021/08/06 10:12:51;;;;;;;2.35;0.03;;;26.20;50.60;;;;;;5033463;28;20084;-49
2021/08/06 10:15:21;;;;;;;0.45;0.00;;;26.20;50.60;;;;;;5037712;28;20135;-49
2021/08/06 10:17:48;;;;;;;1.38;0.55;;;26.20;50.60;;;;;;5045959;28;20049;-49
2021/08/06 10:20:20;;;;;;;1.27;0.05;;;26.20;50.50;;;;;;5045966;28;20036;-47
2021/08/06 10:22:47;;;;;;;0.68;0.10;;;26.20;50.40;;;;;;5045944;28;20491;-48
2021/08/06 10:25:16;;;;;;;0.50;0.25;;;26.20;50.40;;;;;;5029655;28;20088;-50
2021/08/06 10:27:45;;;;;;;0.63;0.10;;;26.20;50.40;;;;;;5034399;28;20152;-50
2021/08/06 10:30:22;;;;;;;0.35;0.10;;;26.20;50.40;;;;;;5043212;28;20041;-52
2021/08/06 10:33:05;;;;;;;0.10;0.10;;;26.20;50.30;;;;;;5040151;28;20057;-52
2021/08/06 10:35:47;;;;;;;0.40;0.00;;;26.30;50.40;;;;;;5038212;28;20556;-49
2021/08/06 10:38:15;;;;;;;0.32;0.00;;;26.20;50.30;;;;;;5046050;28;20044;-55
2021/08/06 10:41:13;;;;;;;0.10;0.00;;;26.20;51.00;;;;;;5046373;28;20502;-49
2021/08/06 10:44:06;;;;;;;0.03;0.00;;;26.30;50.40;;;;;;5031129;28;20044;-50
2021/08/06 10:46:58;;;;;;;2.42;0.10;;;26.30;50.40;;;;;;5030354;28;20041;-48
2021/08/06 10:49:27;;;;;;;0.68;0.45;;;26.30;50.30;;;;;;5044934;28;20136;-48
2021/08/06 10:52:14;;;;;;;1.65;0.10;;;26.30;50.30;;;;;;5047415;28;20051;-51
2021/08/06 10:54:41;;;;;;;0.20;0.10;;;26.30;50.20;;;;;;5046722;28;20053;-53
2021/08/06 10:57:17;;;;;;;0.90;0.13;;;26.30;50.20;;;;;;5046484;28;20114;-50
2021/08/06 10:59:45;;;;;;;0.40;0.10;;;26.30;50.10;;;;;;5045983;28;20049;-48
2021/08/06 11:02:48;;;;;;;0.10;0.00;;;26.30;50.10;;;;;;5045575;28;20033;-48
2021/08/06 11:05:48;;;;;;;1.05;0.10;;;26.40;50.10;;;;;;5035073;28;20422;-48
2021/08/06 11:08:58;;;;;;;0.20;0.00;;;26.40;50.00;;;;;;5035630;28;20064;-51
2021/08/06 11:11:53;;;;;;;0.47;0.10;;;26.40;50.00;;;;;;5034961;28;20148;-51
2021/08/06 11:14:57;;;;;;;0.30;0.30;;;26.30;49.90;;;;;;5038382;28;20053;-48
2021/08/06 11:17:33;;;;;;;0.60;0.00;;;26.40;50.00;;;;;;5037013;28;20037;-51
2021/08/06 11:20:09;;;;;;;0.85;0.10;;;26.30;50.00;;;;;;5045757;28;20049;-46
2021/08/06 11:22:38;;;;;;;;;;;26.40;50.00;;;;;;5045819;28;20048;-49
2021/08/06 11:25:11;;;;;;;0.52;0.00;;;26.30;50.00;;;;;;5051255;28;19925;-50
2021/08/06 11:27:42;;;;;;;1.08;0.20;;;26.30;50.10;;;;;;5046752;28;20702;-47
2021/08/06 11:30:11;;;;;;;2.92;0.10;;;26.40;50.10;;;;;;5045418;28;20526;-48
2021/08/06 11:32:50;;;;;;;0.20;0.10;;;26.40;50.00;;;;;;5046092;28;20064;-49
2021/08/06 11:35:19;;;;;;;1.52;0.00;;;26.40;49.90;;;;;;5044703;28;20539;-51
2021/08/06 11:37:49;;;;;;;0.57;0.10;;;26.40;49.80;;;;;;5034860;28;20426;-47
2021/08/06 11:40:17;;;;;;;0.22;0.10;;;26.40;49.80;;;;;;5049539;28;20480;-49
2021/08/06 11:42:46;;;;;;;0.65;0.00;;;26.40;49.70;;;;;;5032235;28;20167;-48
2021/08/06 11:45:15;;;;;;;0.68;0.10;;;26.50;49.70;;;;;;5037755;28;20045;-48
2021/08/06 11:47:44;;;;;;;0.63;0.00;;;26.50;49.70;;;;;;5037769;28;20037;-49
2021/08/06 11:50:14;;;;;;;0.20;0.20;;;26.50;49.60;;;;;;5037883;28;20076;-51
2021/08/06 11:52:44;;;;;;;0.40;0.40;;;26.50;49.60;;;;;;5048454;28;20392;-50
2021/08/06 11:55:14;;;;;;;0.85;0.25;;;26.60;49.60;;;;;;5033196;28;20131;-54
2021/08/06 11:58:00;;;;;;;0.40;0.10;;;26.60;49.60;;;;;;5049106;28;20045;-50
2021/08/06 12:00:29;;;;;;;1.45;0.00;;;26.60;49.40;;;;;;5048392;28;20033;-51
2021/08/06 12:03:11;;;;;;;2.75;0.10;;;26.60;49.40;;;;;;5048257;28;20033;-48
2021/08/06 12:05:41;;;;;;;0.47;0.10;;;26.60;49.30;;;;;;5048154;28;20056;-48
2021/08/06 12:08:19;;;;;;;0.10;0.10;;;26.60;49.20;;;;;;5048453;28;20052;-46
2021/08/06 12:10:48;;;;;;;0.47;0.17;;;26.70;49.20;;;;;;5034301;28;20068;-53
2021/08/06 12:13:20;;;;;;;1.95;0.10;;;26.60;49.10;;;;;;5048385;28;20136;-46
2021/08/06 12:15:47;;;;;;;1.13;0.45;;;26.60;49.10;;;;;;5033835;28;20045;-50
2021/08/06 12:18:17;;;;;;;1.10;0.13;;;26.70;49.10;;;;;;5045958;28;20043;-48
2021/08/06 12:20:47;;;;;;;0.43;0.10;;;26.70;49.00;;;;;;5047684;28;20045;-52
2021/08/06 12:23:18;;;;;;;2.85;0.10;;;26.70;49.00;;;;;;5047161;28;20040;-51
2021/08/06 12:26:05;;;;;;;2.05;0.20;;;26.70;49.00;;;;;;5034161;28;20037;-52
2021/08/06 12:28:35;;;;;;;1.75;0.10;;;26.70;49.00;;;;;;5048272;28;20434;-49
2021/08/06 12:31:11;;;;;;;0.77;0.10;;;26.70;49.10;;;;;;5043585;28;20469;-50
2021/08/06 12:33:39;;;;;;;1.90;0.15;;;26.70;49.00;;;;;;5048046;28;20051;-50
2021/08/06 12:36:15;;;;;;;0.35;0.10;;;26.70;49.00;;;;;;5047870;28;20044;-45
2021/08/06 12:38:43;;;;;;;0.90;0.10;;;26.70;49.00;;;;;;5043683;28;20057;-52
2021/08/06 12:41:24;;;;;;;0.22;0.10;;;26.70;49.00;;;;;;5035887;28;20041;-49
2021/08/06 12:44:13;;;;;;;0.57;0.10;;;26.70;49.00;;;;;;5048058;28;20119;-50
2021/08/06 12:46:41;;;;;;;0.32;0.10;;;26.80;49.00;;;;;;5033090;28;20052;-50
2021/08/06 12:49:10;;;;;;;1.17;0.10;;;26.80;49.00;;;;;;5047965;28;20802;-49
2021/08/06 12:51:39;;;;;;;0.10;0.00;;;26.80;49.00;;;;;;5048616;28;20135;-50
2021/08/06 12:54:34;;;;;;;0.20;0.00;;;26.80;49.00;;;;;;5047426;28;20457;-50
2021/08/06 12:57:06;;;;;;;0.45;0.00;;;26.80;48.80;;;;;;5047581;28;20055;-50
2021/08/06 12:59:35;;;;;;;0.10;0.00;;;26.80;48.80;;;;;;5047432;28;20064;-49
2021/08/06 13:02:13;;;;;;;1.52;0.10;;;26.90;48.80;;;;;;5047722;28;20423;-49
2021/08/06 13:04:40;;;;;;;0.85;0.10;;;26.80;48.70;;;;;;5032235;28;20049;-50
2021/08/06 13:07:09;;;;;;;1.75;0.28;;;26.80;48.70;;;;;;5032641;28;20041;-47